Shiguaigou, China
Current Conditions -  °F | °C
As of 6:00 AM on Sunday 21 Dec 2014 (Local Time) from ZBHH Reporting Station
Clear Clear  
Wind Chill: -12°   Ceiling: Unl
Heat Index: -2°   Visibility: 6mi
Dew Point: -9°   Wind: 4mph
Humidity: 71%   Direction: 120°ESE
Pressure: 30.33"   Gusts: NA
Location:  40.71°N, 110.29°E
Report Text: ZBHH 202200Z 12002MPS CAVOK M19/M23 Q1027 NOSIG
Loading
Personal Weather Stations






























Interactive Weather Map New forecast layout! Learn more

10-Day Weather Forecast

Advertisements
Track Severe Weather on mobile